Main page
METAR-TAF:

METAR-TAF

Airports :

Memmingen, Germany

latitude: 47-59-33N, longitude: 10-14-37E, elevation: 633 m

Current weather observation

The report was made 9 minutes ago, at 13:20 UTC
Wind 10 kt from the Northwest, varying between West and North
Temperature 19°C
Humidity 56%
Pressure 1018 hPa
Visibility 10 km or more
no clouds below 1500 m and no cumulonimbus

METAR: EDJA 231320Z 32010KT 280V350 CAVOK 19/10 Q1018

Time: 15:29 (13:29 UTC)

Forecast

The report was made 2 hours and 29 minutes ago, at 11:00 UTC
Forecast valid from 23 at 12 UTC to 23 at 21 UTC
Wind 12 kt from the West
Visibility 10 km or more
Scattered clouds at a height of 5000 ft
Probability 30% :
Temporary
from 23 at 12 UTC to 23 at 21 UTC
Wind 15 kt from the Northwest with gusts up to 30 kt
Broken clouds at a height of 4000 ft, Cumulonimbus.
thunderstorm, rain

TAF: EDJA 231100Z 2312/2321 26012KT 9999 SCT050 PROB30 TEMPO 2312/2321 32015G30KT TSRA BKN040CB

Weather observations and forecasts of more than 4000 airports (METAR and TAF reports).

The available stations are represented by yellow and red dots on the map.

Hover mouse over dot to see the name of the station.

Then click to see weather observations and forecasts.

To change the map : click on the green buttons with a black cross to zoom in, on the green button with a dash to zoom out, or on the green arrows for adjacent maps.


METAR-TAF: